sensor_id;sensor_type;location;lat;lon;timestamp;temperature;humidity
71096;DHT22;58753;49.440;11.126;2023-03-26T00:01:03;7.41;78.92
71096;DHT22;58753;49.440;11.126;2023-03-26T00:03:31;7.44;78.75
71096;DHT22;58753;49.440;11.126;2023-03-26T00:08:32;7.44;78.42
71096;DHT22;58753;49.440;11.126;2023-03-26T00:10:57;7.46;78.25
71096;DHT22;58753;49.440;11.126;2023-03-26T00:13:23;7.47;78.12
71096;DHT22;58753;49.440;11.126;2023-03-26T00:15:48;7.47;78.04
71096;DHT22;58753;49.440;11.126;2023-03-26T00:18:13;7.48;77.85
71096;DHT22;58753;49.440;11.126;2023-03-26T00:20:39;7.47;77.81
71096;DHT22;58753;49.440;11.126;2023-03-26T00:23:05;7.44;77.71
71096;DHT22;58753;49.440;11.126;2023-03-26T00:25:32;7.46;77.69
71096;DHT22;58753;49.440;11.126;2023-03-26T00:27:59;7.44;77.64
71096;DHT22;58753;49.440;11.126;2023-03-26T00:30:24;7.46;77.60
71096;DHT22;58753;49.440;11.126;2023-03-26T00:32:50;7.44;77.58
71096;DHT22;58753;49.440;11.126;2023-03-26T00:35:16;7.44;77.61
71096;DHT22;58753;49.440;11.126;2023-03-26T00:37:41;7.50;77.56
71096;DHT22;58753;49.440;11.126;2023-03-26T00:40:08;7.46;77.54
71096;DHT22;58753;49.440;11.126;2023-03-26T00:42:36;7.50;77.58
71096;DHT22;58753;49.440;11.126;2023-03-26T00:45:05;7.47;77.52
71096;DHT22;58753;49.440;11.126;2023-03-26T00:47:31;7.51;77.54
71096;DHT22;58753;49.440;11.126;2023-03-26T00:49:57;7.47;77.53
71096;DHT22;58753;49.440;11.126;2023-03-26T00:52:23;7.47;77.58
71096;DHT22;58753;49.440;11.126;2023-03-26T00:54:51;7.44;77.57
71096;DHT22;58753;49.440;11.126;2023-03-26T00:57:18;7.48;77.61
71096;DHT22;58753;49.440;11.126;2023-03-26T00:59:46;7.47;77.57
71096;DHT22;58753;49.440;11.126;2023-03-26T01:02:13;7.48;77.64
71096;DHT22;58753;49.440;11.126;2023-03-26T01:04:49;7.51;77.60
71096;DHT22;58753;49.440;11.126;2023-03-26T01:07:20;7.48;77.58
71096;DHT22;58753;49.440;11.126;2023-03-26T01:09:54;7.51;77.63
71096;DHT22;58753;49.440;11.126;2023-03-26T01:12:23;7.50;77.69
71096;DHT22;58753;49.440;11.126;2023-03-26T01:14:51;7.52;77.53
71096;DHT22;58753;49.440;11.126;2023-03-26T01:17:17;7.51;77.52
71096;DHT22;58753;49.440;11.126;2023-03-26T01:22:33;7.43;77.65
71096;DHT22;58753;49.440;11.126;2023-03-26T01:25:00;7.41;77.64
71096;DHT22;58753;49.440;11.126;2023-03-26T01:27:55;7.41;77.84
71096;DHT22;58753;49.440;11.126;2023-03-26T01:30:56;7.40;77.85
71096;DHT22;58753;49.440;11.126;2023-03-26T01:34:01;7.43;78.03
71096;DHT22;58753;49.440;11.126;2023-03-26T01:36:40;7.41;77.83
71096;DHT22;58753;49.440;11.126;2023-03-26T01:39:30;7.32;77.92
71096;DHT22;58753;49.440;11.126;2023-03-26T01:42:02;7.31;78.19
71096;DHT22;58753;49.440;11.126;2023-03-26T01:47:00;7.30;78.20
71096;DHT22;58753;49.440;11.126;2023-03-26T01:49:27;7.40;78.22
71096;DHT22;58753;49.440;11.126;2023-03-26T01:51:55;7.38;78.13
71096;DHT22;58753;49.440;11.126;2023-03-26T01:54:22;7.34;78.14
71096;DHT22;58753;49.440;11.126;2023-03-26T01:57:22;7.34;78.20
71096;DHT22;58753;49.440;11.126;2023-03-26T02:02:50;7.44;77.99
71096;DHT22;58753;49.440;11.126;2023-03-26T02:05:27;7.41;77.85
71096;DHT22;58753;49.440;11.126;2023-03-26T02:08:02;7.41;77.86
71096;DHT22;58753;49.440;11.126;2023-03-26T02:10:33;7.37;77.68
71096;DHT22;58753;49.440;11.126;2023-03-26T02:13:00;7.32;77.75
71096;DHT22;58753;49.440;11.126;2023-03-26T02:15:25;7.30;77.79
71096;DHT22;58753;49.440;11.126;2023-03-26T02:17:51;7.30;77.98
71096;DHT22;58753;49.440;11.126;2023-03-26T02:20:18;7.28;77.99
71096;DHT22;58753;49.440;11.126;2023-03-26T02:22:44;7.30;77.98
71096;DHT22;58753;49.440;11.126;2023-03-26T02:25:16;7.27;77.92
71096;DHT22;58753;49.440;11.126;2023-03-26T02:27:43;7.28;77.98
71096;DHT22;58753;49.440;11.126;2023-03-26T02:30:11;7.26;78.00
71096;DHT22;58753;49.440;11.126;2023-03-26T02:32:36;7.27;78.02
71096;DHT22;58753;49.440;11.126;2023-03-26T02:35:03;7.28;78.01
71096;DHT22;58753;49.440;11.126;2023-03-26T02:37:29;7.31;77.92
71096;DHT22;58753;49.440;11.126;2023-03-26T02:39:58;7.28;77.90
71096;DHT22;58753;49.440;11.126;2023-03-26T02:42:24;7.27;77.97
71096;DHT22;58753;49.440;11.126;2023-03-26T02:44:49;7.24;78.03
71096;DHT22;58753;49.440;11.126;2023-03-26T02:47:14;7.24;78.09
71096;DHT22;58753;49.440;11.126;2023-03-26T02:49:40;7.26;78.09
71096;DHT22;58753;49.440;11.126;2023-03-26T02:52:05;7.21;78.09
71096;DHT22;58753;49.440;11.126;2023-03-26T02:54:32;7.20;78.20
71096;DHT22;58753;49.440;11.126;2023-03-26T02:56:58;7.21;78.06
71096;DHT22;58753;49.440;11.126;2023-03-26T02:59:24;7.10;78.01
71096;DHT22;58753;49.440;11.126;2023-03-26T03:01:49;7.01;78.01
71096;DHT22;58753;49.440;11.126;2023-03-26T03:04:15;6.93;78.16
71096;DHT22;58753;49.440;11.126;2023-03-26T03:06:42;6.82;78.39
71096;DHT22;58753;49.440;11.126;2023-03-26T03:09:09;6.79;78.60
71096;DHT22;58753;49.440;11.126;2023-03-26T03:11:36;6.77;78.74
71096;DHT22;58753;49.440;11.126;2023-03-26T03:14:01;6.75;78.87
71096;DHT22;58753;49.440;11.126;2023-03-26T03:16:27;6.71;78.92
71096;DHT22;58753;49.440;11.126;2023-03-26T03:18:53;6.62;78.96
71096;DHT22;58753;49.440;11.126;2023-03-26T03:21:21;6.56;79.06
71096;DHT22;58753;49.440;11.126;2023-03-26T03:23:46;6.49;79.09
71096;DHT22;58753;49.440;11.126;2023-03-26T03:26:14;6.45;79.18
71096;DHT22;58753;49.440;11.126;2023-03-26T03:28:40;6.39;79.31
71096;DHT22;58753;49.440;11.126;2023-03-26T03:31:05;6.35;79.40
71096;DHT22;58753;49.440;11.126;2023-03-26T03:33:33;6.29;79.63
71096;DHT22;58753;49.440;11.126;2023-03-26T03:35:58;6.31;79.71
71096;DHT22;58753;49.440;11.126;2023-03-26T03:38:24;6.31;79.87
71096;DHT22;58753;49.440;11.126;2023-03-26T03:40:49;6.32;79.79
71096;DHT22;58753;49.440;11.126;2023-03-26T03:43:15;6.31;79.85
71096;DHT22;58753;49.440;11.126;2023-03-26T03:45:41;6.34;79.92
71096;DHT22;58753;49.440;11.126;2023-03-26T03:48:06;6.29;79.88
71096;DHT22;58753;49.440;11.126;2023-03-26T03:50:32;6.34;79.94
71096;DHT22;58753;49.440;11.126;2023-03-26T03:52:57;6.36;79.91
71096;DHT22;58753;49.440;11.126;2023-03-26T03:55:24;6.36;79.90
71096;DHT22;58753;49.440;11.126;2023-03-26T03:57:52;6.39;79.85
71096;DHT22;58753;49.440;11.126;2023-03-26T04:00:18;6.39;79.76
71096;DHT22;58753;49.440;11.126;2023-03-26T04:02:43;6.35;79.68
71096;DHT22;58753;49.440;11.126;2023-03-26T04:05:11;6.31;79.77
71096;DHT22;58753;49.440;11.126;2023-03-26T04:07:37;6.28;80.01
71096;DHT22;58753;49.440;11.126;2023-03-26T04:10:04;6.25;80.04
71096;DHT22;58753;49.440;11.126;2023-03-26T04:12:30;6.24;80.24
71096;DHT22;58753;49.440;11.126;2023-03-26T04:14:56;6.25;80.30
71096;DHT22;58753;49.440;11.126;2023-03-26T04:17:22;6.22;80.47
71096;DHT22;58753;49.440;11.126;2023-03-26T04:19:48;6.15;80.65
71096;DHT22;58753;49.440;11.126;2023-03-26T04:22:15;6.18;80.92
71096;DHT22;58753;49.440;11.126;2023-03-26T04:24:44;6.17;81.04
71096;DHT22;58753;49.440;11.126;2023-03-26T04:27:15;6.17;81.26
71096;DHT22;58753;49.440;11.126;2023-03-26T04:29:43;6.18;81.46
71096;DHT22;58753;49.440;11.126;2023-03-26T04:32:20;6.15;81.45
71096;DHT22;58753;49.440;11.126;2023-03-26T04:34:46;6.14;81.46
71096;DHT22;58753;49.440;11.126;2023-03-26T04:37:24;6.08;81.59
71096;DHT22;58753;49.440;11.126;2023-03-26T04:39:52;6.04;81.81
71096;DHT22;58753;49.440;11.126;2023-03-26T04:42:17;5.97;81.93
71096;DHT22;58753;49.440;11.126;2023-03-26T04:44:46;5.90;82.01
71096;DHT22;58753;49.440;11.126;2023-03-26T04:47:17;5.81;82.18
71096;DHT22;58753;49.440;11.126;2023-03-26T04:49:44;5.77;82.37
71096;DHT22;58753;49.440;11.126;2023-03-26T04:52:11;5.74;82.64
71096;DHT22;58753;49.440;11.126;2023-03-26T04:54:37;5.69;82.64
71096;DHT22;58753;49.440;11.126;2023-03-26T04:57:06;5.64;82.89
71096;DHT22;58753;49.440;11.126;2023-03-26T04:59:33;5.64;82.92
71096;DHT22;58753;49.440;11.126;2023-03-26T05:02:00;5.66;83.09
71096;DHT22;58753;49.440;11.126;2023-03-26T05:04:26;5.66;83.34
71096;DHT22;58753;49.440;11.126;2023-03-26T05:06:57;5.69;83.42
71096;DHT22;58753;49.440;11.126;2023-03-26T05:09:24;5.73;83.50
71096;DHT22;58753;49.440;11.126;2023-03-26T05:11:49;5.77;83.64
71096;DHT22;58753;49.440;11.126;2023-03-26T05:14:16;5.81;83.77
71096;DHT22;58753;49.440;11.126;2023-03-26T05:16:43;5.87;83.80
71096;DHT22;58753;49.440;11.126;2023-03-26T05:19:09;5.90;83.74
71096;DHT22;58753;49.440;11.126;2023-03-26T05:21:35;5.97;83.80
71096;DHT22;58753;49.440;11.126;2023-03-26T05:24:00;6.00;83.80
71096;DHT22;58753;49.440;11.126;2023-03-26T05:26:26;6.01;83.72
71096;DHT22;58753;49.440;11.126;2023-03-26T05:28:53;6.00;83.69
71096;DHT22;58753;49.440;11.126;2023-03-26T05:31:19;6.01;83.77
71096;DHT22;58753;49.440;11.126;2023-03-26T05:33:47;5.97;83.84
71096;DHT22;58753;49.440;11.126;2023-03-26T05:36:14;5.98;83.86
71096;DHT22;58753;49.440;11.126;2023-03-26T05:38:41;5.98;83.97
71096;DHT22;58753;49.440;11.126;2023-03-26T05:41:08;6.00;84.02
71096;DHT22;58753;49.440;11.126;2023-03-26T05:43:34;6.04;84.08
71096;DHT22;58753;49.440;11.126;2023-03-26T05:46:00;6.05;84.10
71096;DHT22;58753;49.440;11.126;2023-03-26T05:48:26;6.11;84.07
71096;DHT22;58753;49.440;11.126;2023-03-26T05:50:53;6.11;84.13
71096;DHT22;58753;49.440;11.126;2023-03-26T05:53:20;6.12;84.07
71096;DHT22;58753;49.440;11.126;2023-03-26T05:55:46;6.17;84.15
71096;DHT22;58753;49.440;11.126;2023-03-26T05:58:20;6.24;84.12
71096;DHT22;58753;49.440;11.126;2023-03-26T06:00:45;6.26;84.07
71096;DHT22;58753;49.440;11.126;2023-03-26T06:03:13;6.32;84.00
71096;DHT22;58753;49.440;11.126;2023-03-26T06:05:39;6.32;83.96
71096;DHT22;58753;49.440;11.126;2023-03-26T06:08:05;6.39;83.92
71096;DHT22;58753;49.440;11.126;2023-03-26T06:10:30;6.45;83.86
71096;DHT22;58753;49.440;11.126;2023-03-26T06:12:56;6.50;83.77
71096;DHT22;58753;49.440;11.126;2023-03-26T06:15:22;6.57;83.64
71096;DHT22;58753;49.440;11.126;2023-03-26T06:17:48;6.65;83.55
71096;DHT22;58753;49.440;11.126;2023-03-26T06:20:14;6.69;83.54
71096;DHT22;58753;49.440;11.126;2023-03-26T06:22:39;6.73;83.36
71096;DHT22;58753;49.440;11.126;2023-03-26T06:25:05;6.75;83.29
71096;DHT22;58753;49.440;11.126;2023-03-26T06:27:31;6.79;83.21
71096;DHT22;58753;49.440;11.126;2023-03-26T06:29:56;6.86;83.17
71096;DHT22;58753;49.440;11.126;2023-03-26T06:32:22;6.95;83.06
71096;DHT22;58753;49.440;11.126;2023-03-26T06:34:47;7.00;82.91
71096;DHT22;58753;49.440;11.126;2023-03-26T06:37:12;7.04;82.65
71096;DHT22;58753;49.440;11.126;2023-03-26T06:39:38;7.07;82.27
71096;DHT22;58753;49.440;11.126;2023-03-26T06:42:03;7.07;82.00
71096;DHT22;58753;49.440;11.126;2023-03-26T06:44:29;7.06;81.78
71096;DHT22;58753;49.440;11.126;2023-03-26T06:46:54;7.07;81.68
71096;DHT22;58753;49.440;11.126;2023-03-26T06:49:20;7.11;81.70
71096;DHT22;58753;49.440;11.126;2023-03-26T06:51:45;7.16;81.53
71096;DHT22;58753;49.440;11.126;2023-03-26T06:54:12;7.20;81.46
71096;DHT22;58753;49.440;11.126;2023-03-26T06:56:37;7.26;81.39
71096;DHT22;58753;49.440;11.126;2023-03-26T06:59:03;7.37;81.23
71096;DHT22;58753;49.440;11.126;2023-03-26T07:01:28;7.44;81.05
71096;DHT22;58753;49.440;11.126;2023-03-26T07:03:53;7.47;80.85
71096;DHT22;58753;49.440;11.126;2023-03-26T07:06:19;7.51;80.65
71096;DHT22;58753;49.440;11.126;2023-03-26T07:08:44;7.51;80.55
71096;DHT22;58753;49.440;11.126;2023-03-26T07:11:10;7.55;80.48
71096;DHT22;58753;49.440;11.126;2023-03-26T07:13:35;7.54;80.27
71096;DHT22;58753;49.440;11.126;2023-03-26T07:16:01;7.60;80.32
71096;DHT22;58753;49.440;11.126;2023-03-26T07:18:27;7.67;80.34
71096;DHT22;58753;49.440;11.126;2023-03-26T07:20:52;7.72;80.18
71096;DHT22;58753;49.440;11.126;2023-03-26T07:23:18;7.77;80.03
71096;DHT22;58753;49.440;11.126;2023-03-26T07:25:46;7.82;79.85
71096;DHT22;58753;49.440;11.126;2023-03-26T07:30:58;7.83;79.48
71096;DHT22;58753;49.440;11.126;2023-03-26T07:33:37;7.82;79.21
71096;DHT22;58753;49.440;11.126;2023-03-26T07:38:43;7.93;78.81
71096;DHT22;58753;49.440;11.126;2023-03-26T07:41:23;8.01;78.79
71096;DHT22;58753;49.440;11.126;2023-03-26T07:46:37;8.10;78.45
71096;DHT22;58753;49.440;11.126;2023-03-26T07:49:04;8.10;78.23
71096;DHT22;58753;49.440;11.126;2023-03-26T07:51:31;8.13;78.05
71096;DHT22;58753;49.440;11.126;2023-03-26T07:53:57;8.12;78.19
71096;DHT22;58753;49.440;11.126;2023-03-26T07:56:34;8.09;77.89
71096;DHT22;58753;49.440;11.126;2023-03-26T07:59:19;8.05;77.92
71096;DHT22;58753;49.440;11.126;2023-03-26T08:04:37;7.96;78.52
71096;DHT22;58753;49.440;11.126;2023-03-26T08:10:29;7.78;79.04
71096;DHT22;58753;49.440;11.126;2023-03-26T08:15:54;7.82;79.64
71096;DHT22;58753;49.440;11.126;2023-03-26T08:18:40;7.83;79.76
71096;DHT22;58753;49.440;11.126;2023-03-26T08:21:18;7.74;79.82
71096;DHT22;58753;49.440;11.126;2023-03-26T08:23:59;7.72;80.00
71096;DHT22;58753;49.440;11.126;2023-03-26T08:26:41;7.68;80.21
71096;DHT22;58753;49.440;11.126;2023-03-26T08:31:36;7.67;80.74
71096;DHT22;58753;49.440;11.126;2023-03-26T08:34:04;7.65;81.02
71096;DHT22;58753;49.440;11.126;2023-03-26T08:36:30;7.61;81.31
71096;DHT22;58753;49.440;11.126;2023-03-26T08:38:56;7.57;81.54
71096;DHT22;58753;49.440;11.126;2023-03-26T08:41:45;7.48;81.91
71096;DHT22;58753;49.440;11.126;2023-03-26T09:13:19;7.16;86.16
71096;DHT22;58753;49.440;11.126;2023-03-26T09:21:43;7.26;86.65
71096;DHT22;58753;49.440;11.126;2023-03-26T09:27:51;7.20;86.94
71096;DHT22;58753;49.440;11.126;2023-03-26T09:38:04;7.52;87.28
71096;DHT22;58753;49.440;11.126;2023-03-26T09:40:36;7.46;87.23
71096;DHT22;58753;49.440;11.126;2023-03-26T09:46:24;7.34;87.58
71096;DHT22;58753;49.440;11.126;2023-03-26T09:49:27;7.32;87.83
71096;DHT22;58753;49.440;11.126;2023-03-26T09:52:15;7.34;88.03
71096;DHT22;58753;49.440;11.126;2023-03-26T10:03:08;7.17;88.37
71096;DHT22;58753;49.440;11.126;2023-03-26T10:16:30;7.31;88.81
71096;DHT22;58753;49.440;11.126;2023-03-26T10:24:39;7.23;88.84
71096;DHT22;58753;49.440;11.126;2023-03-26T10:30:02;7.23;89.07
71096;DHT22;58753;49.440;11.126;2023-03-26T10:33:46;7.20;88.98
71096;DHT22;58753;49.440;11.126;2023-03-26T10:36:11;7.21;89.23
71096;DHT22;58753;49.440;11.126;2023-03-26T10:41:21;7.32;89.42
71096;DHT22;58753;49.440;11.126;2023-03-26T10:49:40;7.44;89.64
71096;DHT22;58753;49.440;11.126;2023-03-26T10:52:15;7.38;89.34
71096;DHT22;58753;49.440;11.126;2023-03-26T10:54:55;7.34;89.17
71096;DHT22;58753;49.440;11.126;2023-03-26T10:57:40;7.30;89.45
71096;DHT22;58753;49.440;11.126;2023-03-26T11:00:19;7.21;89.39
71096;DHT22;58753;49.440;11.126;2023-03-26T11:11:39;7.58;89.68
71096;DHT22;58753;49.440;11.126;2023-03-26T11:14:33;7.60;89.46
71096;DHT22;58753;49.440;11.126;2023-03-26T11:19:50;7.30;89.17
71096;DHT22;58753;49.440;11.126;2023-03-26T11:22:28;7.30;89.53
71096;DHT22;58753;49.440;11.126;2023-03-26T11:25:16;7.32;89.70
71096;DHT22;58753;49.440;11.126;2023-03-26T11:33:40;7.37;89.27
71096;DHT22;58753;49.440;11.126;2023-03-26T11:36:11;7.38;89.29
71096;DHT22;58753;49.440;11.126;2023-03-26T11:38:43;7.38;89.30
71096;DHT22;58753;49.440;11.126;2023-03-26T11:41:12;7.40;89.43
71096;DHT22;58753;49.440;11.126;2023-03-26T11:43:38;7.41;89.34
71096;DHT22;58753;49.440;11.126;2023-03-26T11:46:07;7.51;89.64
71096;DHT22;58753;49.440;11.126;2023-03-26T11:48:39;7.77;89.93
71096;DHT22;58753;49.440;11.126;2023-03-26T11:51:10;7.92;89.50
71096;DHT22;58753;49.440;11.126;2023-03-26T11:53:37;7.96;89.19
71096;DHT22;58753;49.440;11.126;2023-03-26T11:56:26;7.91;88.98
71096;DHT22;58753;49.440;11.126;2023-03-26T12:01:40;7.74;88.71
71096;DHT22;58753;49.440;11.126;2023-03-26T12:04:13;7.96;89.27
71096;DHT22;58753;49.440;11.126;2023-03-26T12:07:34;8.14;88.84
71096;DHT22;58753;49.440;11.126;2023-03-26T12:09:35;8.25;88.86
71096;DHT22;58753;49.440;11.126;2023-03-26T12:12:02;8.17;88.06
71096;DHT22;58753;49.440;11.126;2023-03-26T12:14:31;8.14;88.65
71096;DHT22;58753;49.440;11.126;2023-03-26T12:17:00;8.26;88.79
71096;DHT22;58753;49.440;11.126;2023-03-26T12:19:34;8.44;88.71
71096;DHT22;58753;49.440;11.126;2023-03-26T12:21:59;8.68;88.28
71096;DHT22;58753;49.440;11.126;2023-03-26T12:24:33;9.08;88.01
71096;DHT22;58753;49.440;11.126;2023-03-26T12:27:25;9.42;87.51
71096;DHT22;58753;49.440;11.126;2023-03-26T12:30:23;10.75;86.79
71096;DHT22;58753;49.440;11.126;2023-03-26T12:32:51;12.68;84.98
71096;DHT22;58753;49.440;11.126;2023-03-26T12:35:24;12.97;80.00
71096;DHT22;58753;49.440;11.126;2023-03-26T12:37:52;14.49;80.99
71096;DHT22;58753;49.440;11.126;2023-03-26T12:40:26;15.24;77.62
71096;DHT22;58753;49.440;11.126;2023-03-26T12:42:54;15.17;73.27
71096;DHT22;58753;49.440;11.126;2023-03-26T12:45:36;13.54;72.47
71096;DHT22;58753;49.440;11.126;2023-03-26T12:48:03;12.92;73.81
71096;DHT22;58753;49.440;11.126;2023-03-26T12:53:40;16.25;69.46
71096;DHT22;58753;49.440;11.126;2023-03-26T12:59:15;16.74;65.33
71096;DHT22;58753;49.440;11.126;2023-03-26T13:07:12;17.34;63.58
71096;DHT22;58753;49.440;11.126;2023-03-26T13:09:59;17.41;60.06
71096;DHT22;58753;49.440;11.126;2023-03-26T13:18:14;16.19;56.19
71096;DHT22;58753;49.440;11.126;2023-03-26T13:20:49;17.20;58.56
71096;DHT22;58753;49.440;11.126;2023-03-26T13:28:48;17.66;49.94
71096;DHT22;58753;49.440;11.126;2023-03-26T13:31:23;17.20;50.28
71096;DHT22;58753;49.440;11.126;2023-03-26T13:34:00;15.61;51.51
71096;DHT22;58753;49.440;11.126;2023-03-26T13:39:22;16.50;52.81
71096;DHT22;58753;49.440;11.126;2023-03-26T13:47:34;13.82;56.28
71096;DHT22;58753;49.440;11.126;2023-03-26T13:50:24;13.43;57.71
71096;DHT22;58753;49.440;11.126;2023-03-26T13:55:24;12.97;59.28
71096;DHT22;58753;49.440;11.126;2023-03-26T14:00:25;12.32;59.84
71096;DHT22;58753;49.440;11.126;2023-03-26T14:03:05;12.28;61.40
71096;DHT22;58753;49.440;11.126;2023-03-26T14:05:42;12.07;60.62
71096;DHT22;58753;49.440;11.126;2023-03-26T14:08:18;12.05;61.65
71096;DHT22;58753;49.440;11.126;2023-03-26T14:10:55;12.00;62.48
71096;DHT22;58753;49.440;11.126;2023-03-26T14:13:41;11.87;62.53
71096;DHT22;58753;49.440;11.126;2023-03-26T14:16:17;11.95;63.11
71096;DHT22;58753;49.440;11.126;2023-03-26T14:19:10;11.62;63.38
71096;DHT22;58753;49.440;11.126;2023-03-26T14:41:05;16.74;63.69
71096;DHT22;58753;49.440;11.126;2023-03-26T14:43:48;17.17;61.85
71096;DHT22;58753;49.440;11.126;2023-03-26T14:52:16;17.66;53.16
71096;DHT22;58753;49.440;11.126;2023-03-26T14:54:47;17.69;51.56
71096;DHT22;58753;49.440;11.126;2023-03-26T15:03:32;18.58;47.08
71096;DHT22;58753;49.440;11.126;2023-03-26T15:12:26;18.03;45.00
71096;DHT22;58753;49.440;11.126;2023-03-26T15:15:23;18.05;44.85
71096;DHT22;58753;49.440;11.126;2023-03-26T15:37:45;14.18;48.12
71096;DHT22;58753;49.440;11.126;2023-03-26T15:43:09;13.78;50.66
71096;DHT22;58753;49.440;11.126;2023-03-26T15:45:38;13.77;50.92
71096;DHT22;58753;49.440;11.126;2023-03-26T16:02:00;13.02;44.57
71096;DHT22;58753;49.440;11.126;2023-03-26T16:04:54;13.15;42.88
71096;DHT22;58753;49.440;11.126;2023-03-26T16:10:15;13.35;41.98
71096;DHT22;58753;49.440;11.126;2023-03-26T16:18:36;12.79;42.05
71096;DHT22;58753;49.440;11.126;2023-03-26T16:29:23;12.27;43.49
71096;DHT22;58753;49.440;11.126;2023-03-26T16:32:21;12.21;43.95
71096;DHT22;58753;49.440;11.126;2023-03-26T16:35:19;12.20;44.44
71096;DHT22;58753;49.440;11.126;2023-03-26T16:37:48;12.10;44.68
71096;DHT22;58753;49.440;11.126;2023-03-26T16:43:16;11.86;45.30
71096;DHT22;58753;49.440;11.126;2023-03-26T16:51:54;11.50;47.37
71096;DHT22;58753;49.440;11.126;2023-03-26T16:57:16;11.40;48.10
71096;DHT22;58753;49.440;11.126;2023-03-26T17:02:42;11.33;48.86
71096;DHT22;58753;49.440;11.126;2023-03-26T17:05:29;11.30;49.27
71096;DHT22;58753;49.440;11.126;2023-03-26T17:08:15;11.23;49.65
71096;DHT22;58753;49.440;11.126;2023-03-26T17:13:50;11.14;50.48
71096;DHT22;58753;49.440;11.126;2023-03-26T17:24:26;11.02;51.18
71096;DHT22;58753;49.440;11.126;2023-03-26T17:27:06;10.94;51.39
71096;DHT22;58753;49.440;11.126;2023-03-26T17:29:55;10.85;51.95
71096;DHT22;58753;49.440;11.126;2023-03-26T17:32:22;10.78;52.33
71096;DHT22;58753;49.440;11.126;2023-03-26T17:34:58;10.72;52.61
71096;DHT22;58753;49.440;11.126;2023-03-26T17:37:40;10.68;52.86
71096;DHT22;58753;49.440;11.126;2023-03-26T17:43:01;10.60;53.45
71096;DHT22;58753;49.440;11.126;2023-03-26T17:45:31;10.61;53.83
71096;DHT22;58753;49.440;11.126;2023-03-26T17:48:07;10.61;54.02
71096;DHT22;58753;49.440;11.126;2023-03-26T17:50:40;10.58;54.26
71096;DHT22;58753;49.440;11.126;2023-03-26T17:53:25;10.53;54.60
71096;DHT22;58753;49.440;11.126;2023-03-26T17:55:54;10.53;54.86
71096;DHT22;58753;49.440;11.126;2023-03-26T17:58:25;10.53;55.15
71096;DHT22;58753;49.440;11.126;2023-03-26T18:01:00;10.53;55.29
71096;DHT22;58753;49.440;11.126;2023-03-26T18:03:31;10.58;55.61
71096;DHT22;58753;49.440;11.126;2023-03-26T18:06:06;10.57;55.78
71096;DHT22;58753;49.440;11.126;2023-03-26T18:08:48;10.63;56.17
71096;DHT22;58753;49.440;11.126;2023-03-26T18:11:34;10.63;56.59
71096;DHT22;58753;49.440;11.126;2023-03-26T18:16:58;10.51;57.72
71096;DHT22;58753;49.440;11.126;2023-03-26T18:19:25;10.40;58.10
71096;DHT22;58753;49.440;11.126;2023-03-26T18:21:58;10.29;58.59
71096;DHT22;58753;49.440;11.126;2023-03-26T18:24:30;10.20;58.98
71096;DHT22;58753;49.440;11.126;2023-03-26T18:27:10;10.06;59.49
71096;DHT22;58753;49.440;11.126;2023-03-26T18:29:42;10.03;59.93
71096;DHT22;58753;49.440;11.126;2023-03-26T18:34:36;9.58;62.24
71096;DHT22;58753;49.440;11.126;2023-03-26T18:39:32;9.15;64.52
71096;DHT22;58753;49.440;11.126;2023-03-26T18:41:58;9.03;65.44
71096;DHT22;58753;49.440;11.126;2023-03-26T18:44:24;8.88;66.19
71096;DHT22;58753;49.440;11.126;2023-03-26T18:46:53;8.81;66.77
71096;DHT22;58753;49.440;11.126;2023-03-26T18:49:19;8.70;67.27
71096;DHT22;58753;49.440;11.126;2023-03-26T18:51:46;8.60;67.92
71096;DHT22;58753;49.440;11.126;2023-03-26T18:54:21;8.53;69.14
71096;DHT22;58753;49.440;11.126;2023-03-26T18:56:48;8.44;69.23
71096;DHT22;58753;49.440;11.126;2023-03-26T18:59:31;8.44;69.72
71096;DHT22;58753;49.440;11.126;2023-03-26T19:02:02;8.39;69.86
71096;DHT22;58753;49.440;11.126;2023-03-26T19:04:30;8.34;70.39
71096;DHT22;58753;49.440;11.126;2023-03-26T19:06:59;8.33;70.72
71096;DHT22;58753;49.440;11.126;2023-03-26T19:09:26;8.29;71.13
71096;DHT22;58753;49.440;11.126;2023-03-26T19:11:57;8.30;71.21
71096;DHT22;58753;49.440;11.126;2023-03-26T19:14:23;8.29;71.41
71096;DHT22;58753;49.440;11.126;2023-03-26T19:17:10;8.29;71.72
71096;DHT22;58753;49.440;11.126;2023-03-26T19:19:36;8.34;72.12
71096;DHT22;58753;49.440;11.126;2023-03-26T19:22:07;8.36;71.93
71096;DHT22;58753;49.440;11.126;2023-03-26T19:24:35;8.26;72.04
71096;DHT22;58753;49.440;11.126;2023-03-26T19:27:00;8.10;72.31
71096;DHT22;58753;49.440;11.126;2023-03-26T19:29:30;7.99;73.01
71096;DHT22;58753;49.440;11.126;2023-03-26T19:32:04;7.89;73.37
71096;DHT22;58753;49.440;11.126;2023-03-26T19:34:37;7.83;73.90
71096;DHT22;58753;49.440;11.126;2023-03-26T19:37:25;7.82;73.96
71096;DHT22;58753;49.440;11.126;2023-03-26T19:39:52;7.81;73.98
71096;DHT22;58753;49.440;11.126;2023-03-26T19:42:29;7.75;74.28
71096;DHT22;58753;49.440;11.126;2023-03-26T19:44:57;7.71;74.57
71096;DHT22;58753;49.440;11.126;2023-03-26T19:47:40;7.71;74.50
71096;DHT22;58753;49.440;11.126;2023-03-26T19:50:33;7.67;74.58
71096;DHT22;58753;49.440;11.126;2023-03-26T19:53:19;7.65;74.81
71096;DHT22;58753;49.440;11.126;2023-03-26T19:58:34;7.64;75.27
71096;DHT22;58753;49.440;11.126;2023-03-26T20:01:00;7.64;75.36
71096;DHT22;58753;49.440;11.126;2023-03-26T20:03:37;7.61;75.54
71096;DHT22;58753;49.440;11.126;2023-03-26T20:06:03;7.60;75.60
71096;DHT22;58753;49.440;11.126;2023-03-26T20:08:29;7.61;75.88
71096;DHT22;58753;49.440;11.126;2023-03-26T20:10:55;7.60;75.84
71096;DHT22;58753;49.440;11.126;2023-03-26T20:13:21;7.58;75.94
71096;DHT22;58753;49.440;11.126;2023-03-26T20:15:54;7.55;75.79
71096;DHT22;58753;49.440;11.126;2023-03-26T20:18:21;7.55;76.08
71096;DHT22;58753;49.440;11.126;2023-03-26T20:20:48;7.51;76.13
71096;DHT22;58753;49.440;11.126;2023-03-26T20:23:14;7.51;76.22
71096;DHT22;58753;49.440;11.126;2023-03-26T20:25:49;7.47;76.43
71096;DHT22;58753;49.440;11.126;2023-03-26T20:28:17;7.46;76.43
71096;DHT22;58753;49.440;11.126;2023-03-26T20:30:47;7.43;76.45
71096;DHT22;58753;49.440;11.126;2023-03-26T20:33:20;7.43;76.58
71096;DHT22;58753;49.440;11.126;2023-03-26T20:35:49;7.43;76.69
71096;DHT22;58753;49.440;11.126;2023-03-26T20:38:15;7.43;76.52
71096;DHT22;58753;49.440;11.126;2023-03-26T20:40:40;7.44;76.67
71096;DHT22;58753;49.440;11.126;2023-03-26T20:43:11;7.38;76.89
71096;DHT22;58753;49.440;11.126;2023-03-26T20:45:37;7.38;76.98
71096;DHT22;58753;49.440;11.126;2023-03-26T20:48:03;7.37;76.97
71096;DHT22;58753;49.440;11.126;2023-03-26T20:50:28;7.40;76.88
71096;DHT22;58753;49.440;11.126;2023-03-26T20:52:55;7.40;76.91
71096;DHT22;58753;49.440;11.126;2023-03-26T20:55:20;7.37;76.87